sensor_id;sensor_type;location;lat;lon;timestamp;P1;durP1;ratioP1;P2;durP2;ratioP2
23280;SDS011;11809;56.390;-3.266;2022-11-09T00:01:01;0.40;;;0.30;;
23280;SDS011;11809;56.390;-3.266;2022-11-09T00:03:29;0.52;;;0.47;;
23280;SDS011;11809;56.390;-3.266;2022-11-09T00:05:57;1.55;;;0.40;;
23280;SDS011;11809;56.390;-3.266;2022-11-09T00:08:25;0.50;;;0.50;;
23280;SDS011;11809;56.390;-3.266;2022-11-09T00:10:52;0.50;;;0.40;;
23280;SDS011;11809;56.390;-3.266;2022-11-09T00:13:19;0.95;;;0.55;;
23280;SDS011;11809;56.390;-3.266;2022-11-09T00:15:46;0.50;;;0.50;;
23280;SDS011;11809;56.390;-3.266;2022-11-09T00:18:13;0.85;;;0.50;;
23280;SDS011;11809;56.390;-3.266;2022-11-09T00:20:40;0.60;;;0.40;;
23280;SDS011;11809;56.390;-3.266;2022-11-09T00:23:13;1.98;;;0.40;;
23280;SDS011;11809;56.390;-3.266;2022-11-09T00:25:42;0.43;;;0.30;;
23280;SDS011;11809;56.390;-3.266;2022-11-09T00:28:09;0.80;;;0.50;;
23280;SDS011;11809;56.390;-3.266;2022-11-09T00:30:36;0.57;;;0.40;;
23280;SDS011;11809;56.390;-3.266;2022-11-09T00:33:03;0.50;;;0.40;;
23280;SDS011;11809;56.390;-3.266;2022-11-09T00:35:30;1.50;;;0.60;;
23280;SDS011;11809;56.390;-3.266;2022-11-09T00:37:57;0.65;;;0.40;;
23280;SDS011;11809;56.390;-3.266;2022-11-09T00:40:24;0.82;;;0.45;;
23280;SDS011;11809;56.390;-3.266;2022-11-09T00:42:51;0.47;;;0.40;;
23280;SDS011;11809;56.390;-3.266;2022-11-09T00:45:18;0.65;;;0.52;;
23280;SDS011;11809;56.390;-3.266;2022-11-09T00:47:45;1.15;;;0.65;;
23280;SDS011;11809;56.390;-3.266;2022-11-09T00:50:12;0.80;;;0.50;;
23280;SDS011;11809;56.390;-3.266;2022-11-09T00:52:39;2.83;;;0.60;;
23280;SDS011;11809;56.390;-3.266;2022-11-09T00:55:06;0.73;;;0.50;;
23280;SDS011;11809;56.390;-3.266;2022-11-09T00:57:33;2.50;;;0.70;;
23280;SDS011;11809;56.390;-3.266;2022-11-09T01:00:00;0.90;;;0.50;;
23280;SDS011;11809;56.390;-3.266;2022-11-09T01:02:27;1.30;;;0.60;;
23280;SDS011;11809;56.390;-3.266;2022-11-09T01:04:54;1.13;;;0.93;;
23280;SDS011;11809;56.390;-3.266;2022-11-09T01:07:21;0.43;;;0.43;;
23280;SDS011;11809;56.390;-3.266;2022-11-09T01:09:47;1.00;;;0.60;;
23280;SDS011;11809;56.390;-3.266;2022-11-09T01:12:14;0.57;;;0.50;;
23280;SDS011;11809;56.390;-3.266;2022-11-09T01:14:41;1.30;;;0.70;;
23280;SDS011;11809;56.390;-3.266;2022-11-09T01:17:08;0.75;;;0.57;;
23280;SDS011;11809;56.390;-3.266;2022-11-09T01:19:35;0.40;;;0.40;;
23280;SDS011;11809;56.390;-3.266;2022-11-09T01:22:02;0.40;;;0.40;;
23280;SDS011;11809;56.390;-3.266;2022-11-09T01:24:29;0.98;;;0.45;;
23280;SDS011;11809;56.390;-3.266;2022-11-09T01:26:56;0.40;;;0.40;;
23280;SDS011;11809;56.390;-3.266;2022-11-09T01:29:23;1.25;;;0.70;;
23280;SDS011;11809;56.390;-3.266;2022-11-09T01:31:50;1.10;;;0.60;;
23280;SDS011;11809;56.390;-3.266;2022-11-09T01:34:19;0.82;;;0.50;;
23280;SDS011;11809;56.390;-3.266;2022-11-09T01:36:49;0.40;;;0.40;;
23280;SDS011;11809;56.390;-3.266;2022-11-09T01:39:17;0.77;;;0.50;;
23280;SDS011;11809;56.390;-3.266;2022-11-09T01:41:45;0.50;;;0.50;;
23280;SDS011;11809;56.390;-3.266;2022-11-09T01:44:14;0.63;;;0.50;;
23280;SDS011;11809;56.390;-3.266;2022-11-09T01:46:57;0.70;;;0.50;;
23280;SDS011;11809;56.390;-3.266;2022-11-09T01:52:23;1.58;;;0.70;;
23280;SDS011;11809;56.390;-3.266;2022-11-09T01:55:06;1.67;;;0.50;;
23280;SDS011;11809;56.390;-3.266;2022-11-09T01:57:44;1.60;;;0.50;;
23280;SDS011;11809;56.390;-3.266;2022-11-09T02:00:17;0.88;;;0.50;;
23280;SDS011;11809;56.390;-3.266;2022-11-09T02:02:46;1.27;;;0.50;;
23280;SDS011;11809;56.390;-3.266;2022-11-09T02:05:21;1.30;;;0.40;;
23280;SDS011;11809;56.390;-3.266;2022-11-09T02:12:55;1.15;;;0.70;;
23280;SDS011;11809;56.390;-3.266;2022-11-09T02:15:24;0.82;;;0.57;;
23280;SDS011;11809;56.390;-3.266;2022-11-09T02:17:52;0.70;;;0.40;;
23280;SDS011;11809;56.390;-3.266;2022-11-09T02:20:20;1.67;;;0.60;;
23280;SDS011;11809;56.390;-3.266;2022-11-09T02:22:48;0.90;;;0.60;;
23280;SDS011;11809;56.390;-3.266;2022-11-09T02:25:15;4.85;;;0.60;;
23280;SDS011;11809;56.390;-3.266;2022-11-09T02:27:43;0.40;;;0.40;;
23280;SDS011;11809;56.390;-3.266;2022-11-09T02:30:11;1.10;;;0.40;;
23280;SDS011;11809;56.390;-3.266;2022-11-09T02:32:39;1.17;;;0.40;;
23280;SDS011;11809;56.390;-3.266;2022-11-09T02:35:06;0.60;;;0.50;;
23280;SDS011;11809;56.390;-3.266;2022-11-09T02:37:34;1.00;;;0.63;;
23280;SDS011;11809;56.390;-3.266;2022-11-09T02:42:59;0.45;;;0.40;;
23280;SDS011;11809;56.390;-3.266;2022-11-09T02:45:27;0.70;;;0.50;;
23280;SDS011;11809;56.390;-3.266;2022-11-09T02:47:53;0.40;;;0.40;;
23280;SDS011;11809;56.390;-3.266;2022-11-09T02:50:20;0.80;;;0.50;;
23280;SDS011;11809;56.390;-3.266;2022-11-09T02:52:47;0.55;;;0.40;;
23280;SDS011;11809;56.390;-3.266;2022-11-09T02:55:14;1.25;;;0.50;;
23280;SDS011;11809;56.390;-3.266;2022-11-09T02:57:41;0.73;;;0.50;;
23280;SDS011;11809;56.390;-3.266;2022-11-09T03:00:08;0.40;;;0.40;;
23280;SDS011;11809;56.390;-3.266;2022-11-09T03:02:36;0.40;;;0.40;;
23280;SDS011;11809;56.390;-3.266;2022-11-09T03:05:03;2.20;;;0.50;;
23280;SDS011;11809;56.390;-3.266;2022-11-09T03:07:30;3.30;;;0.50;;
23280;SDS011;11809;56.390;-3.266;2022-11-09T03:09:58;1.45;;;0.60;;
23280;SDS011;11809;56.390;-3.266;2022-11-09T03:12:25;0.50;;;0.50;;
23280;SDS011;11809;56.390;-3.266;2022-11-09T03:14:58;0.60;;;0.45;;
23280;SDS011;11809;56.390;-3.266;2022-11-09T03:17:26;1.15;;;0.40;;
23280;SDS011;11809;56.390;-3.266;2022-11-09T03:19:54;1.05;;;0.40;;
23280;SDS011;11809;56.390;-3.266;2022-11-09T03:22:21;0.65;;;0.50;;
23280;SDS011;11809;56.390;-3.266;2022-11-09T03:24:48;0.70;;;0.50;;
23280;SDS011;11809;56.390;-3.266;2022-11-09T03:27:14;0.68;;;0.50;;
23280;SDS011;11809;56.390;-3.266;2022-11-09T03:29:41;0.75;;;0.35;;
23280;SDS011;11809;56.390;-3.266;2022-11-09T03:32:09;0.50;;;0.30;;
23280;SDS011;11809;56.390;-3.266;2022-11-09T03:34:37;1.48;;;0.50;;
23280;SDS011;11809;56.390;-3.266;2022-11-09T03:37:04;1.38;;;0.50;;
23280;SDS011;11809;56.390;-3.266;2022-11-09T03:39:30;0.55;;;0.50;;
23280;SDS011;11809;56.390;-3.266;2022-11-09T03:41:58;0.88;;;0.40;;
23280;SDS011;11809;56.390;-3.266;2022-11-09T03:44:25;1.80;;;0.47;;
23280;SDS011;11809;56.390;-3.266;2022-11-09T03:46:52;0.35;;;0.35;;
23280;SDS011;11809;56.390;-3.266;2022-11-09T03:49:19;0.85;;;0.50;;
23280;SDS011;11809;56.390;-3.266;2022-11-09T03:51:49;1.02;;;0.35;;
23280;SDS011;11809;56.390;-3.266;2022-11-09T03:54:16;1.00;;;0.50;;
23280;SDS011;11809;56.390;-3.266;2022-11-09T03:56:43;1.20;;;0.60;;
23280;SDS011;11809;56.390;-3.266;2022-11-09T03:59:10;0.90;;;0.47;;
23280;SDS011;11809;56.390;-3.266;2022-11-09T04:01:37;1.63;;;0.50;;
23280;SDS011;11809;56.390;-3.266;2022-11-09T04:04:04;0.73;;;0.40;;
23280;SDS011;11809;56.390;-3.266;2022-11-09T04:06:31;1.58;;;0.50;;
23280;SDS011;11809;56.390;-3.266;2022-11-09T04:08:58;1.50;;;0.52;;
23280;SDS011;11809;56.390;-3.266;2022-11-09T04:11:24;1.27;;;0.50;;
23280;SDS011;11809;56.390;-3.266;2022-11-09T04:13:51;2.05;;;0.68;;
23280;SDS011;11809;56.390;-3.266;2022-11-09T04:16:18;1.00;;;0.60;;
23280;SDS011;11809;56.390;-3.266;2022-11-09T04:18:45;1.50;;;0.60;;
23280;SDS011;11809;56.390;-3.266;2022-11-09T04:21:12;1.55;;;0.60;;
23280;SDS011;11809;56.390;-3.266;2022-11-09T04:23:39;0.95;;;0.50;;
23280;SDS011;11809;56.390;-3.266;2022-11-09T04:26:06;1.42;;;0.50;;
23280;SDS011;11809;56.390;-3.266;2022-11-09T04:28:33;1.05;;;0.50;;
23280;SDS011;11809;56.390;-3.266;2022-11-09T04:31:00;2.25;;;0.70;;
23280;SDS011;11809;56.390;-3.266;2022-11-09T04:33:27;1.95;;;0.55;;
23280;SDS011;11809;56.390;-3.266;2022-11-09T04:35:54;1.42;;;0.60;;
23280;SDS011;11809;56.390;-3.266;2022-11-09T04:38:26;1.30;;;0.63;;
23280;SDS011;11809;56.390;-3.266;2022-11-09T04:40:53;1.67;;;0.60;;
23280;SDS011;11809;56.390;-3.266;2022-11-09T04:43:20;2.17;;;0.70;;
23280;SDS011;11809;56.390;-3.266;2022-11-09T04:45:47;1.75;;;0.55;;
23280;SDS011;11809;56.390;-3.266;2022-11-09T04:48:14;1.55;;;0.60;;
23280;SDS011;11809;56.390;-3.266;2022-11-09T04:50:41;1.75;;;0.60;;
23280;SDS011;11809;56.390;-3.266;2022-11-09T04:53:11;1.40;;;0.52;;
23280;SDS011;11809;56.390;-3.266;2022-11-09T04:55:40;1.40;;;0.60;;
23280;SDS011;11809;56.390;-3.266;2022-11-09T04:58:08;0.95;;;0.60;;
23280;SDS011;11809;56.390;-3.266;2022-11-09T05:00:35;1.95;;;0.60;;
23280;SDS011;11809;56.390;-3.266;2022-11-09T05:03:03;1.42;;;0.47;;
23280;SDS011;11809;56.390;-3.266;2022-11-09T05:05:31;1.00;;;0.50;;
23280;SDS011;11809;56.390;-3.266;2022-11-09T05:08:02;1.13;;;0.40;;
23280;SDS011;11809;56.390;-3.266;2022-11-09T05:10:30;1.48;;;0.60;;
23280;SDS011;11809;56.390;-3.266;2022-11-09T05:13:05;1.95;;;0.60;;
23280;SDS011;11809;56.390;-3.266;2022-11-09T05:15:33;2.03;;;0.63;;
23280;SDS011;11809;56.390;-3.266;2022-11-09T05:18:01;2.40;;;0.70;;
23280;SDS011;11809;56.390;-3.266;2022-11-09T05:20:29;1.38;;;0.50;;
23280;SDS011;11809;56.390;-3.266;2022-11-09T05:22:57;0.82;;;0.60;;
23280;SDS011;11809;56.390;-3.266;2022-11-09T05:25:44;2.67;;;0.50;;
23280;SDS011;11809;56.390;-3.266;2022-11-09T05:28:11;1.98;;;0.50;;
23280;SDS011;11809;56.390;-3.266;2022-11-09T05:30:39;1.65;;;0.57;;
23280;SDS011;11809;56.390;-3.266;2022-11-09T05:33:06;0.57;;;0.50;;
23280;SDS011;11809;56.390;-3.266;2022-11-09T05:35:32;1.33;;;0.50;;
23280;SDS011;11809;56.390;-3.266;2022-11-09T05:37:59;11.25;;;1.00;;
23280;SDS011;11809;56.390;-3.266;2022-11-09T05:40:26;4.05;;;0.80;;
23280;SDS011;11809;56.390;-3.266;2022-11-09T05:42:53;8.77;;;0.50;;
23280;SDS011;11809;56.390;-3.266;2022-11-09T05:45:22;2.78;;;0.70;;
23280;SDS011;11809;56.390;-3.266;2022-11-09T05:48:08;1.42;;;0.52;;
23280;SDS011;11809;56.390;-3.266;2022-11-09T05:50:36;3.63;;;0.63;;
23280;SDS011;11809;56.390;-3.266;2022-11-09T05:53:04;3.47;;;0.70;;
23280;SDS011;11809;56.390;-3.266;2022-11-09T05:55:30;3.30;;;0.68;;
23280;SDS011;11809;56.390;-3.266;2022-11-09T05:57:57;1.65;;;0.70;;
23280;SDS011;11809;56.390;-3.266;2022-11-09T06:00:24;4.38;;;0.90;;
23280;SDS011;11809;56.390;-3.266;2022-11-09T06:02:52;1.77;;;0.73;;
23280;SDS011;11809;56.390;-3.266;2022-11-09T06:05:18;6.63;;;0.95;;
23280;SDS011;11809;56.390;-3.266;2022-11-09T06:07:46;4.60;;;0.82;;
23280;SDS011;11809;56.390;-3.266;2022-11-09T06:10:13;3.70;;;0.80;;
23280;SDS011;11809;56.390;-3.266;2022-11-09T06:12:40;4.47;;;0.85;;
23280;SDS011;11809;56.390;-3.266;2022-11-09T06:15:07;4.13;;;0.88;;
23280;SDS011;11809;56.390;-3.266;2022-11-09T06:17:34;6.60;;;1.13;;
23280;SDS011;11809;56.390;-3.266;2022-11-09T06:20:01;14.60;;;1.20;;
23280;SDS011;11809;56.390;-3.266;2022-11-09T06:22:29;9.02;;;0.93;;
23280;SDS011;11809;56.390;-3.266;2022-11-09T06:24:56;3.55;;;1.02;;
23280;SDS011;11809;56.390;-3.266;2022-11-09T06:27:23;4.10;;;1.02;;
23280;SDS011;11809;56.390;-3.266;2022-11-09T06:29:50;3.90;;;0.77;;
23280;SDS011;11809;56.390;-3.266;2022-11-09T06:32:17;7.47;;;1.10;;
23280;SDS011;11809;56.390;-3.266;2022-11-09T06:34:44;8.55;;;1.25;;
23280;SDS011;11809;56.390;-3.266;2022-11-09T06:37:13;5.90;;;1.40;;
23280;SDS011;11809;56.390;-3.266;2022-11-09T06:39:43;4.78;;;1.35;;
23280;SDS011;11809;56.390;-3.266;2022-11-09T06:42:10;17.52;;;1.75;;
23280;SDS011;11809;56.390;-3.266;2022-11-09T06:44:37;6.05;;;1.08;;
23280;SDS011;11809;56.390;-3.266;2022-11-09T06:47:04;12.68;;;1.30;;
23280;SDS011;11809;56.390;-3.266;2022-11-09T06:49:31;4.35;;;1.05;;
23280;SDS011;11809;56.390;-3.266;2022-11-09T06:51:58;5.45;;;0.95;;
23280;SDS011;11809;56.390;-3.266;2022-11-09T06:54:25;4.53;;;1.00;;
23280;SDS011;11809;56.390;-3.266;2022-11-09T06:56:53;3.05;;;0.80;;
23280;SDS011;11809;56.390;-3.266;2022-11-09T06:59:21;3.70;;;0.90;;
23280;SDS011;11809;56.390;-3.266;2022-11-09T07:01:48;3.45;;;0.80;;
23280;SDS011;11809;56.390;-3.266;2022-11-09T07:04:15;7.45;;;1.25;;
23280;SDS011;11809;56.390;-3.266;2022-11-09T07:06:42;8.65;;;1.40;;
23280;SDS011;11809;56.390;-3.266;2022-11-09T07:09:10;5.90;;;1.50;;
23280;SDS011;11809;56.390;-3.266;2022-11-09T07:11:37;4.20;;;1.23;;
23280;SDS011;11809;56.390;-3.266;2022-11-09T07:14:04;4.25;;;1.17;;
23280;SDS011;11809;56.390;-3.266;2022-11-09T07:16:31;5.43;;;1.17;;
23280;SDS011;11809;56.390;-3.266;2022-11-09T07:18:59;3.25;;;1.20;;
23280;SDS011;11809;56.390;-3.266;2022-11-09T07:21:26;5.53;;;1.05;;
23280;SDS011;11809;56.390;-3.266;2022-11-09T07:23:53;11.23;;;1.38;;
23280;SDS011;11809;56.390;-3.266;2022-11-09T07:26:19;16.15;;;1.98;;
23280;SDS011;11809;56.390;-3.266;2022-11-09T07:28:46;7.38;;;1.60;;
23280;SDS011;11809;56.390;-3.266;2022-11-09T07:31:13;9.55;;;1.45;;
23280;SDS011;11809;56.390;-3.266;2022-11-09T07:33:40;7.45;;;1.50;;
23280;SDS011;11809;56.390;-3.266;2022-11-09T07:36:07;5.53;;;1.38;;
23280;SDS011;11809;56.390;-3.266;2022-11-09T07:38:34;5.07;;;1.10;;
23280;SDS011;11809;56.390;-3.266;2022-11-09T07:41:01;4.03;;;1.00;;
23280;SDS011;11809;56.390;-3.266;2022-11-09T07:43:29;2.80;;;0.77;;
23280;SDS011;11809;56.390;-3.266;2022-11-09T07:45:56;6.25;;;1.13;;
23280;SDS011;11809;56.390;-3.266;2022-11-09T07:48:23;4.38;;;0.95;;
23280;SDS011;11809;56.390;-3.266;2022-11-09T07:50:50;3.00;;;0.85;;
23280;SDS011;11809;56.390;-3.266;2022-11-09T07:53:17;3.65;;;0.98;;
23280;SDS011;11809;56.390;-3.266;2022-11-09T07:55:44;3.80;;;1.10;;
23280;SDS011;11809;56.390;-3.266;2022-11-09T07:58:13;3.85;;;0.80;;
23280;SDS011;11809;56.390;-3.266;2022-11-09T08:00:41;5.10;;;1.20;;
23280;SDS011;11809;56.390;-3.266;2022-11-09T08:03:09;2.28;;;0.88;;
23280;SDS011;11809;56.390;-3.266;2022-11-09T08:05:36;5.03;;;1.08;;
23280;SDS011;11809;56.390;-3.266;2022-11-09T08:08:06;2.83;;;0.80;;
23280;SDS011;11809;56.390;-3.266;2022-11-09T08:10:36;2.70;;;0.70;;
23280;SDS011;11809;56.390;-3.266;2022-11-09T08:13:04;2.65;;;1.00;;
23280;SDS011;11809;56.390;-3.266;2022-11-09T08:15:34;2.10;;;1.00;;
23280;SDS011;11809;56.390;-3.266;2022-11-09T08:18:02;2.90;;;0.88;;
23280;SDS011;11809;56.390;-3.266;2022-11-09T08:20:32;1.95;;;0.70;;
23280;SDS011;11809;56.390;-3.266;2022-11-09T08:22:59;1.63;;;0.77;;
23280;SDS011;11809;56.390;-3.266;2022-11-09T08:25:31;3.33;;;1.05;;
23280;SDS011;11809;56.390;-3.266;2022-11-09T08:27:59;2.58;;;0.80;;
23280;SDS011;11809;56.390;-3.266;2022-11-09T08:30:27;1.75;;;0.80;;
23280;SDS011;11809;56.390;-3.266;2022-11-09T08:32:54;3.78;;;0.90;;
23280;SDS011;11809;56.390;-3.266;2022-11-09T08:35:22;4.05;;;0.70;;
23280;SDS011;11809;56.390;-3.266;2022-11-09T08:37:50;2.50;;;1.00;;
23280;SDS011;11809;56.390;-3.266;2022-11-09T08:40:22;2.50;;;0.90;;
23280;SDS011;11809;56.390;-3.266;2022-11-09T08:42:51;2.70;;;0.90;;
23280;SDS011;11809;56.390;-3.266;2022-11-09T08:45:20;4.22;;;0.90;;
23280;SDS011;11809;56.390;-3.266;2022-11-09T08:47:47;4.43;;;0.80;;
23280;SDS011;11809;56.390;-3.266;2022-11-09T08:50:14;1.90;;;0.70;;
23280;SDS011;11809;56.390;-3.266;2022-11-09T08:52:41;1.98;;;0.85;;
23280;SDS011;11809;56.390;-3.266;2022-11-09T08:55:08;3.15;;;0.95;;
23280;SDS011;11809;56.390;-3.266;2022-11-09T08:57:35;1.50;;;0.75;;
23280;SDS011;11809;56.390;-3.266;2022-11-09T09:00:03;3.15;;;0.90;;
23280;SDS011;11809;56.390;-3.266;2022-11-09T09:02:31;2.10;;;0.80;;
23280;SDS011;11809;56.390;-3.266;2022-11-09T09:04:58;3.13;;;0.60;;
23280;SDS011;11809;56.390;-3.266;2022-11-09T09:07:25;2.22;;;0.73;;
23280;SDS011;11809;56.390;-3.266;2022-11-09T09:09:52;2.25;;;0.82;;
23280;SDS011;11809;56.390;-3.266;2022-11-09T09:12:19;1.40;;;0.77;;
23280;SDS011;11809;56.390;-3.266;2022-11-09T09:14:46;1.55;;;0.60;;
23280;SDS011;11809;56.390;-3.266;2022-11-09T09:17:14;1.77;;;0.80;;
23280;SDS011;11809;56.390;-3.266;2022-11-09T09:19:41;3.08;;;0.70;;
23280;SDS011;11809;56.390;-3.266;2022-11-09T09:22:15;1.45;;;0.70;;
23280;SDS011;11809;56.390;-3.266;2022-11-09T09:24:42;2.60;;;0.80;;
23280;SDS011;11809;56.390;-3.266;2022-11-09T09:27:09;2.55;;;0.90;;
23280;SDS011;11809;56.390;-3.266;2022-11-09T09:29:36;3.97;;;0.82;;
23280;SDS011;11809;56.390;-3.266;2022-11-09T09:32:03;1.52;;;0.70;;
23280;SDS011;11809;56.390;-3.266;2022-11-09T09:34:30;2.38;;;0.70;;
23280;SDS011;11809;56.390;-3.266;2022-11-09T09:36:57;2.47;;;0.85;;
23280;SDS011;11809;56.390;-3.266;2022-11-09T09:39:24;1.25;;;0.60;;
23280;SDS011;11809;56.390;-3.266;2022-11-09T09:41:52;1.90;;;0.60;;
23280;SDS011;11809;56.390;-3.266;2022-11-09T09:49:41;6.57;;;0.77;;
23280;SDS011;11809;56.390;-3.266;2022-11-09T09:54:42;3.72;;;0.70;;
23280;SDS011;11809;56.390;-3.266;2022-11-09T09:57:18;2.05;;;0.80;;
23280;SDS011;11809;56.390;-3.266;2022-11-09T09:59:51;13.45;;;0.95;;
23280;SDS011;11809;56.390;-3.266;2022-11-09T10:02:23;1.52;;;0.60;;
23280;SDS011;11809;56.390;-3.266;2022-11-09T10:04:53;2.05;;;0.85;;
23280;SDS011;11809;56.390;-3.266;2022-11-09T10:07:29;2.38;;;0.60;;
23280;SDS011;11809;56.390;-3.266;2022-11-09T10:10:02;1.25;;;0.60;;
23280;SDS011;11809;56.390;-3.266;2022-11-09T10:23:58;2.17;;;0.60;;
23280;SDS011;11809;56.390;-3.266;2022-11-09T10:29:20;1.98;;;0.60;;
23280;SDS011;11809;56.390;-3.266;2022-11-09T10:32:20;1.70;;;0.50;;
23280;SDS011;11809;56.390;-3.266;2022-11-09T10:35:06;2.28;;;0.70;;
23280;SDS011;11809;56.390;-3.266;2022-11-09T10:37:48;2.25;;;0.63;;
23280;SDS011;11809;56.390;-3.266;2022-11-09T10:43:13;1.60;;;0.70;;
23280;SDS011;11809;56.390;-3.266;2022-11-09T10:45:41;3.45;;;0.80;;
23280;SDS011;11809;56.390;-3.266;2022-11-09T10:48:11;1.65;;;0.60;;
23280;SDS011;11809;56.390;-3.266;2022-11-09T10:50:47;2.13;;;0.60;;
23280;SDS011;11809;56.390;-3.266;2022-11-09T10:53:15;3.03;;;0.70;;
23280;SDS011;11809;56.390;-3.266;2022-11-09T11:03:50;2.13;;;0.70;;
23280;SDS011;11809;56.390;-3.266;2022-11-09T11:08:49;2.20;;;0.68;;
23280;SDS011;11809;56.390;-3.266;2022-11-09T11:11:29;2.47;;;0.80;;
23280;SDS011;11809;56.390;-3.266;2022-11-09T11:14:12;1.95;;;0.60;;
23280;SDS011;11809;56.390;-3.266;2022-11-09T11:16:55;2.70;;;0.65;;
23280;SDS011;11809;56.390;-3.266;2022-11-09T11:22:38;5.10;;;0.98;;
23280;SDS011;11809;56.390;-3.266;2022-11-09T11:25:01;2.15;;;0.60;;
23280;SDS011;11809;56.390;-3.266;2022-11-09T11:27:50;1.70;;;0.50;;
23280;SDS011;11809;56.390;-3.266;2022-11-09T11:30:25;1.95;;;0.73;;
23280;SDS011;11809;56.390;-3.266;2022-11-09T11:32:57;1.98;;;0.82;;
23280;SDS011;11809;56.390;-3.266;2022-11-09T11:35:35;2.92;;;0.63;;
23280;SDS011;11809;56.390;-3.266;2022-11-09T11:46:46;4.13;;;0.83;;
23280;SDS011;11809;56.390;-3.266;2022-11-09T11:52:31;2.60;;;1.10;;
23280;SDS011;11809;56.390;-3.266;2022-11-09T11:58:17;5.90;;;0.65;;
23280;SDS011;11809;56.390;-3.266;2022-11-09T12:03:47;2.28;;;0.82;;
23280;SDS011;11809;56.390;-3.266;2022-11-09T12:06:38;5.15;;;1.00;;
23280;SDS011;11809;56.390;-3.266;2022-11-09T12:17:30;4.47;;;1.10;;
23280;SDS011;11809;56.390;-3.266;2022-11-09T12:25:50;3.17;;;0.90;;
23280;SDS011;11809;56.390;-3.266;2022-11-09T12:31:30;2.20;;;0.88;;
23280;SDS011;11809;56.390;-3.266;2022-11-09T12:34:26;2.88;;;0.90;;
23280;SDS011;11809;56.390;-3.266;2022-11-09T12:42:42;8.32;;;1.48;;
23280;SDS011;11809;56.390;-3.266;2022-11-09T12:48:03;3.22;;;0.90;;
23280;SDS011;11809;56.390;-3.266;2022-11-09T12:50:38;2.95;;;0.68;;
23280;SDS011;11809;56.390;-3.266;2022-11-09T12:53:06;3.70;;;1.00;;
23280;SDS011;11809;56.390;-3.266;2022-11-09T12:55:39;2.60;;;0.75;;
23280;SDS011;11809;56.390;-3.266;2022-11-09T12:58:21;2.22;;;0.77;;
23280;SDS011;11809;56.390;-3.266;2022-11-09T13:00:50;2.08;;;0.80;;
23280;SDS011;11809;56.390;-3.266;2022-11-09T13:03:27;3.67;;;0.90;;
23280;SDS011;11809;56.390;-3.266;2022-11-09T13:06:09;3.17;;;0.80;;
23280;SDS011;11809;56.390;-3.266;2022-11-09T13:08:54;6.00;;;1.25;;
23280;SDS011;11809;56.390;-3.266;2022-11-09T13:11:33;5.47;;;0.90;;
23280;SDS011;11809;56.390;-3.266;2022-11-09T13:16:57;3.83;;;0.90;;
23280;SDS011;11809;56.390;-3.266;2022-11-09T13:24:54;3.80;;;1.00;;
23280;SDS011;11809;56.390;-3.266;2022-11-09T13:27:37;2.95;;;1.10;;
23280;SDS011;11809;56.390;-3.266;2022-11-09T13:38:15;3.78;;;1.08;;
23280;SDS011;11809;56.390;-3.266;2022-11-09T13:45:56;5.38;;;0.93;;
23280;SDS011;11809;56.390;-3.266;2022-11-09T14:04:03;3.65;;;1.20;;
23280;SDS011;11809;56.390;-3.266;2022-11-09T14:06:31;2.78;;;1.00;;
23280;SDS011;11809;56.390;-3.266;2022-11-09T14:08:59;4.65;;;0.93;;
23280;SDS011;11809;56.390;-3.266;2022-11-09T14:20:21;4.32;;;1.05;;
23280;SDS011;11809;56.390;-3.266;2022-11-09T14:23:26;5.95;;;1.20;;
23280;SDS011;11809;56.390;-3.266;2022-11-09T14:25:55;3.33;;;1.08;;
23280;SDS011;11809;56.390;-3.266;2022-11-09T14:28:25;6.88;;;1.30;;
23280;SDS011;11809;56.390;-3.266;2022-11-09T14:30:53;3.25;;;0.90;;
23280;SDS011;11809;56.390;-3.266;2022-11-09T14:33:22;4.93;;;1.15;;
23280;SDS011;11809;56.390;-3.266;2022-11-09T14:35:51;3.72;;;0.80;;
23280;SDS011;11809;56.390;-3.266;2022-11-09T14:38:32;5.80;;;1.10;;
23280;SDS011;11809;56.390;-3.266;2022-11-09T14:41:01;5.90;;;0.90;;
23280;SDS011;11809;56.390;-3.266;2022-11-09T14:43:32;5.35;;;1.08;;
23280;SDS011;11809;56.390;-3.266;2022-11-09T14:46:11;4.85;;;0.80;;
23280;SDS011;11809;56.390;-3.266;2022-11-09T14:48:51;4.22;;;1.00;;
23280;SDS011;11809;56.390;-3.266;2022-11-09T14:51:24;6.10;;;1.10;;
23280;SDS011;11809;56.390;-3.266;2022-11-09T14:54:07;5.95;;;1.02;;
23280;SDS011;11809;56.390;-3.266;2022-11-09T14:56:39;12.60;;;1.00;;
23280;SDS011;11809;56.390;-3.266;2022-11-09T14:59:09;5.07;;;0.90;;
23280;SDS011;11809;56.390;-3.266;2022-11-09T15:01:40;4.75;;;0.90;;
23280;SDS011;11809;56.390;-3.266;2022-11-09T15:07:36;4.50;;;1.15;;
23280;SDS011;11809;56.390;-3.266;2022-11-09T15:10:05;2.90;;;0.82;;
23280;SDS011;11809;56.390;-3.266;2022-11-09T15:12:49;4.22;;;1.33;;
23280;SDS011;11809;56.390;-3.266;2022-11-09T15:15:19;5.35;;;0.80;;
23280;SDS011;11809;56.390;-3.266;2022-11-09T15:17:50;5.05;;;0.90;;
23280;SDS011;11809;56.390;-3.266;2022-11-09T15:25:27;8.05;;;0.85;;
23280;SDS011;11809;56.390;-3.266;2022-11-09T15:27:59;5.63;;;0.90;;
23280;SDS011;11809;56.390;-3.266;2022-11-09T15:33:22;7.53;;;0.88;;
23280;SDS011;11809;56.390;-3.266;2022-11-09T15:35:57;5.22;;;0.80;;
23280;SDS011;11809;56.390;-3.266;2022-11-09T15:40:55;15.70;;;1.38;;
23280;SDS011;11809;56.390;-3.266;2022-11-09T15:43:23;4.07;;;0.70;;
23280;SDS011;11809;56.390;-3.266;2022-11-09T15:45:51;6.25;;;0.80;;
23280;SDS011;11809;56.390;-3.266;2022-11-09T15:48:19;7.03;;;0.82;;
23280;SDS011;11809;56.390;-3.266;2022-11-09T15:50:48;15.88;;;0.90;;
23280;SDS011;11809;56.390;-3.266;2022-11-09T15:53:15;5.63;;;1.10;;
23280;SDS011;11809;56.390;-3.266;2022-11-09T15:55:43;7.95;;;1.20;;
23280;SDS011;11809;56.390;-3.266;2022-11-09T15:58:10;5.65;;;0.90;;
23280;SDS011;11809;56.390;-3.266;2022-11-09T16:00:40;1.40;;;0.55;;
23280;SDS011;11809;56.390;-3.266;2022-11-09T16:03:08;3.72;;;0.75;;
23280;SDS011;11809;56.390;-3.266;2022-11-09T16:05:36;5.85;;;1.05;;
23280;SDS011;11809;56.390;-3.266;2022-11-09T16:08:03;2.83;;;0.80;;
23280;SDS011;11809;56.390;-3.266;2022-11-09T16:10:33;5.28;;;0.80;;
23280;SDS011;11809;56.390;-3.266;2022-11-09T16:13:03;2.88;;;0.70;;
23280;SDS011;11809;56.390;-3.266;2022-11-09T16:15:34;3.90;;;0.70;;
23280;SDS011;11809;56.390;-3.266;2022-11-09T16:18:03;6.85;;;0.90;;
23280;SDS011;11809;56.390;-3.266;2022-11-09T16:20:31;3.13;;;0.90;;
23280;SDS011;11809;56.390;-3.266;2022-11-09T16:22:58;6.45;;;0.80;;
23280;SDS011;11809;56.390;-3.266;2022-11-09T16:25:26;6.22;;;0.70;;
23280;SDS011;11809;56.390;-3.266;2022-11-09T16:27:53;2.42;;;1.00;;
23280;SDS011;11809;56.390;-3.266;2022-11-09T16:30:20;6.63;;;1.00;;
23280;SDS011;11809;56.390;-3.266;2022-11-09T16:32:48;6.05;;;1.00;;
23280;SDS011;11809;56.390;-3.266;2022-11-09T16:35:15;7.45;;;0.98;;
23280;SDS011;11809;56.390;-3.266;2022-11-09T16:37:57;4.40;;;0.80;;
23280;SDS011;11809;56.390;-3.266;2022-11-09T16:40:28;4.05;;;0.90;;
23280;SDS011;11809;56.390;-3.266;2022-11-09T16:42:57;4.32;;;1.00;;
23280;SDS011;11809;56.390;-3.266;2022-11-09T16:45:26;8.40;;;0.90;;
23280;SDS011;11809;56.390;-3.266;2022-11-09T16:47:58;8.02;;;1.10;;
23280;SDS011;11809;56.390;-3.266;2022-11-09T16:50:30;9.88;;;1.10;;
23280;SDS011;11809;56.390;-3.266;2022-11-09T16:52:57;2.58;;;1.00;;
23280;SDS011;11809;56.390;-3.266;2022-11-09T16:55:24;6.47;;;0.90;;
23280;SDS011;11809;56.390;-3.266;2022-11-09T16:57:52;3.70;;;0.98;;
23280;SDS011;11809;56.390;-3.266;2022-11-09T17:00:19;3.28;;;1.10;;
23280;SDS011;11809;56.390;-3.266;2022-11-09T17:03:03;5.72;;;1.00;;
23280;SDS011;11809;56.390;-3.266;2022-11-09T17:05:30;3.13;;;0.80;;
23280;SDS011;11809;56.390;-3.266;2022-11-09T17:07:57;5.50;;;0.85;;
23280;SDS011;11809;56.390;-3.266;2022-11-09T17:10:25;3.47;;;0.80;;
23280;SDS011;11809;56.390;-3.266;2022-11-09T17:12:52;5.00;;;1.02;;
23280;SDS011;11809;56.390;-3.266;2022-11-09T17:15:19;7.53;;;1.20;;
23280;SDS011;11809;56.390;-3.266;2022-11-09T17:17:46;4.63;;;0.90;;
23280;SDS011;11809;56.390;-3.266;2022-11-09T17:20:14;2.05;;;0.80;;